Paulista, Brazil
Current Conditions -  °F | °C
As of 7:00 PM on Saturday 22 Nov 2014 (Local Time) from SBMS Reporting Station
Clear Clear  
Wind Chill: 82°   Ceiling: Unl
Heat Index: 88°   Visibility: 6mi
Dew Point: 73°   Wind: 14mph
Humidity: 74%   Direction: 40°NE
Pressure: 29.85"   Gusts: NA
Location:  6.59°S, 37.62°W
Report Text: SBMS 222200Z 04012KT CAVOK 28/23 Q1011
Loading
Personal Weather Stations






























Interactive Weather Map New forecast layout! Learn more

10-Day Weather Forecast

Advertisements
Track Severe Weather on mobile